sensor_id;sensor_type;location;lat;lon;timestamp;temperature;humidity
14873;DHT22;7528;48.576;19.122;2022-08-04T00:05:04;22.00;59.50
14873;DHT22;7528;48.576;19.122;2022-08-04T00:10:09;21.90;59.70
14873;DHT22;7528;48.576;19.122;2022-08-04T00:15:14;21.80;60.20
14873;DHT22;7528;48.576;19.122;2022-08-04T00:20:19;21.80;60.40
14873;DHT22;7528;48.576;19.122;2022-08-04T00:25:24;21.70;60.40
14873;DHT22;7528;48.576;19.122;2022-08-04T00:30:27;21.70;60.70
14873;DHT22;7528;48.576;19.122;2022-08-04T00:35:30;21.60;60.50
14873;DHT22;7528;48.576;19.122;2022-08-04T00:40:44;21.60;60.70
14873;DHT22;7528;48.576;19.122;2022-08-04T00:51:28;21.50;61.50
14873;DHT22;7528;48.576;19.122;2022-08-04T00:57:02;21.50;60.80
14873;DHT22;7528;48.576;19.122;2022-08-04T01:02:16;21.30;61.90
14873;DHT22;7528;48.576;19.122;2022-08-04T01:07:42;21.30;62.40
14873;DHT22;7528;48.576;19.122;2022-08-04T01:13:09;21.30;62.20
14873;DHT22;7528;48.576;19.122;2022-08-04T01:18:21;21.20;62.50
14873;DHT22;7528;48.576;19.122;2022-08-04T01:29:07;21.00;63.60
14873;DHT22;7528;48.576;19.122;2022-08-04T01:34:12;20.90;63.70
14873;DHT22;7528;48.576;19.122;2022-08-04T01:39:15;20.90;63.80
14873;DHT22;7528;48.576;19.122;2022-08-04T01:44:39;20.80;64.30
14873;DHT22;7528;48.576;19.122;2022-08-04T01:49:45;20.70;64.80
14873;DHT22;7528;48.576;19.122;2022-08-04T01:54:49;20.70;64.90
14873;DHT22;7528;48.576;19.122;2022-08-04T01:59:58;20.60;64.80
14873;DHT22;7528;48.576;19.122;2022-08-04T02:05:01;20.60;65.80
14873;DHT22;7528;48.576;19.122;2022-08-04T02:10:06;20.60;65.10
14873;DHT22;7528;48.576;19.122;2022-08-04T02:15:22;20.50;65.10
14873;DHT22;7528;48.576;19.122;2022-08-04T02:20:31;20.40;65.40
14873;DHT22;7528;48.576;19.122;2022-08-04T02:25:39;20.40;65.80
14873;DHT22;7528;48.576;19.122;2022-08-04T02:30:53;20.30;66.20
14873;DHT22;7528;48.576;19.122;2022-08-04T02:36:00;20.30;66.30
14873;DHT22;7528;48.576;19.122;2022-08-04T02:41:05;20.30;66.60
14873;DHT22;7528;48.576;19.122;2022-08-04T02:46:11;20.20;66.50
14873;DHT22;7528;48.576;19.122;2022-08-04T02:51:16;20.20;66.60
14873;DHT22;7528;48.576;19.122;2022-08-04T02:56:22;20.10;66.60
14873;DHT22;7528;48.576;19.122;2022-08-04T03:01:27;20.10;66.80
14873;DHT22;7528;48.576;19.122;2022-08-04T03:18:08;20.00;67.30
14873;DHT22;7528;48.576;19.122;2022-08-04T03:23:48;20.00;67.10
14873;DHT22;7528;48.576;19.122;2022-08-04T03:29:20;19.90;67.50
14873;DHT22;7528;48.576;19.122;2022-08-04T03:34:41;19.80;68.20
14873;DHT22;7528;48.576;19.122;2022-08-04T03:45:58;19.80;68.00
14873;DHT22;7528;48.576;19.122;2022-08-04T03:51:18;19.70;68.50
14873;DHT22;7528;48.576;19.122;2022-08-04T04:02:55;19.60;68.90
14873;DHT22;7528;48.576;19.122;2022-08-04T04:08:25;19.60;69.00
14873;DHT22;7528;48.576;19.122;2022-08-04T04:13:50;19.70;68.70
14873;DHT22;7528;48.576;19.122;2022-08-04T04:19:18;19.60;69.40
14873;DHT22;7528;48.576;19.122;2022-08-04T04:24:51;19.60;69.50
14873;DHT22;7528;48.576;19.122;2022-08-04T04:30:02;19.70;69.60
14873;DHT22;7528;48.576;19.122;2022-08-04T04:35:24;19.70;69.70
14873;DHT22;7528;48.576;19.122;2022-08-04T04:40:51;19.80;69.70
14873;DHT22;7528;48.576;19.122;2022-08-04T04:46:04;19.90;69.90
14873;DHT22;7528;48.576;19.122;2022-08-04T04:51:15;19.90;69.70
14873;DHT22;7528;48.576;19.122;2022-08-04T04:56:27;19.90;71.20
14873;DHT22;7528;48.576;19.122;2022-08-04T05:02:00;19.90;70.70
14873;DHT22;7528;48.576;19.122;2022-08-04T05:07:35;20.10;70.50
14873;DHT22;7528;48.576;19.122;2022-08-04T05:12:51;20.20;70.30
14873;DHT22;7528;48.576;19.122;2022-08-04T05:18:01;20.20;70.30
14873;DHT22;7528;48.576;19.122;2022-08-04T05:23:11;20.30;70.20
14873;DHT22;7528;48.576;19.122;2022-08-04T05:28:21;20.40;70.90
14873;DHT22;7528;48.576;19.122;2022-08-04T05:33:31;20.40;70.50
14873;DHT22;7528;48.576;19.122;2022-08-04T05:38:37;20.50;70.00
14873;DHT22;7528;48.576;19.122;2022-08-04T05:43:43;20.70;70.10
14873;DHT22;7528;48.576;19.122;2022-08-04T05:48:47;20.90;70.60
14873;DHT22;7528;48.576;19.122;2022-08-04T05:53:51;20.90;71.30
14873;DHT22;7528;48.576;19.122;2022-08-04T05:59:05;21.00;71.90
14873;DHT22;7528;48.576;19.122;2022-08-04T06:04:16;21.30;70.30
14873;DHT22;7528;48.576;19.122;2022-08-04T06:09:20;21.40;70.40
14873;DHT22;7528;48.576;19.122;2022-08-04T06:14:25;21.50;70.10
14873;DHT22;7528;48.576;19.122;2022-08-04T06:19:29;21.60;70.10
14873;DHT22;7528;48.576;19.122;2022-08-04T06:24:35;21.80;70.00
14873;DHT22;7528;48.576;19.122;2022-08-04T06:29:41;22.00;69.00
14873;DHT22;7528;48.576;19.122;2022-08-04T06:34:45;22.20;68.80
14873;DHT22;7528;48.576;19.122;2022-08-04T06:39:50;22.30;67.70
14873;DHT22;7528;48.576;19.122;2022-08-04T06:44:57;22.50;68.20
14873;DHT22;7528;48.576;19.122;2022-08-04T06:50:00;22.60;67.90
14873;DHT22;7528;48.576;19.122;2022-08-04T06:55:05;22.80;67.20
14873;DHT22;7528;48.576;19.122;2022-08-04T07:00:12;23.00;67.40
14873;DHT22;7528;48.576;19.122;2022-08-04T07:05:16;23.20;66.20
14873;DHT22;7528;48.576;19.122;2022-08-04T07:10:20;23.50;65.40
14873;DHT22;7528;48.576;19.122;2022-08-04T07:15:26;23.60;64.10
14873;DHT22;7528;48.576;19.122;2022-08-04T07:20:30;23.80;64.30
14873;DHT22;7528;48.576;19.122;2022-08-04T07:25:34;24.00;63.90
14873;DHT22;7528;48.576;19.122;2022-08-04T07:30:40;24.30;63.00
14873;DHT22;7528;48.576;19.122;2022-08-04T07:35:47;24.40;63.50
14873;DHT22;7528;48.576;19.122;2022-08-04T07:40:51;24.70;63.10
14873;DHT22;7528;48.576;19.122;2022-08-04T07:45:56;24.90;59.70
14873;DHT22;7528;48.576;19.122;2022-08-04T07:51:00;25.20;58.20
14873;DHT22;7528;48.576;19.122;2022-08-04T07:56:04;25.40;57.10
14873;DHT22;7528;48.576;19.122;2022-08-04T08:01:09;25.70;55.00
14873;DHT22;7528;48.576;19.122;2022-08-04T08:06:12;25.90;54.30
14873;DHT22;7528;48.576;19.122;2022-08-04T08:11:16;26.10;53.30
14873;DHT22;7528;48.576;19.122;2022-08-04T08:16:22;26.40;52.00
14873;DHT22;7528;48.576;19.122;2022-08-04T08:21:25;26.60;52.60
14873;DHT22;7528;48.576;19.122;2022-08-04T08:26:28;26.90;51.60
14873;DHT22;7528;48.576;19.122;2022-08-04T08:31:33;27.10;50.90
14873;DHT22;7528;48.576;19.122;2022-08-04T08:36:40;27.30;50.20
14873;DHT22;7528;48.576;19.122;2022-08-04T08:42:14;27.60;49.10
14873;DHT22;7528;48.576;19.122;2022-08-04T08:47:34;27.80;49.40
14873;DHT22;7528;48.576;19.122;2022-08-04T08:53:01;28.00;48.50
14873;DHT22;7528;48.576;19.122;2022-08-04T08:58:22;28.20;48.20
14873;DHT22;7528;48.576;19.122;2022-08-04T09:09:40;28.60;45.60
14873;DHT22;7528;48.576;19.122;2022-08-04T09:14:50;28.80;47.00
14873;DHT22;7528;48.576;19.122;2022-08-04T09:20:00;29.00;46.30
14873;DHT22;7528;48.576;19.122;2022-08-04T09:25:10;29.20;45.80
14873;DHT22;7528;48.576;19.122;2022-08-04T09:30:18;29.40;44.60
14873;DHT22;7528;48.576;19.122;2022-08-04T09:35:36;29.60;43.20
14873;DHT22;7528;48.576;19.122;2022-08-04T09:40:47;29.70;43.20
14873;DHT22;7528;48.576;19.122;2022-08-04T09:46:00;29.90;42.70
14873;DHT22;7528;48.576;19.122;2022-08-04T09:51:13;30.10;42.50
14873;DHT22;7528;48.576;19.122;2022-08-04T09:56:23;30.30;40.20
14873;DHT22;7528;48.576;19.122;2022-08-04T10:01:29;30.50;42.10
14873;DHT22;7528;48.576;19.122;2022-08-04T10:06:45;30.70;41.90
14873;DHT22;7528;48.576;19.122;2022-08-04T10:12:04;31.00;40.50
14873;DHT22;7528;48.576;19.122;2022-08-04T10:17:20;31.10;40.70
14873;DHT22;7528;48.576;19.122;2022-08-04T10:22:35;31.30;40.40
14873;DHT22;7528;48.576;19.122;2022-08-04T10:27:44;31.60;37.00
14873;DHT22;7528;48.576;19.122;2022-08-04T10:32:51;31.70;36.40
14873;DHT22;7528;48.576;19.122;2022-08-04T10:38:07;31.80;36.60
14873;DHT22;7528;48.576;19.122;2022-08-04T10:43:21;32.10;37.30
14873;DHT22;7528;48.576;19.122;2022-08-04T10:48:34;32.20;34.70
14873;DHT22;7528;48.576;19.122;2022-08-04T10:53:41;32.30;35.60
14873;DHT22;7528;48.576;19.122;2022-08-04T10:58:48;32.40;35.30
14873;DHT22;7528;48.576;19.122;2022-08-04T11:03:56;32.40;33.90
14873;DHT22;7528;48.576;19.122;2022-08-04T11:09:02;32.40;35.60
14873;DHT22;7528;48.576;19.122;2022-08-04T11:14:08;32.50;33.40
14873;DHT22;7528;48.576;19.122;2022-08-04T11:19:23;32.70;34.90
14873;DHT22;7528;48.576;19.122;2022-08-04T11:24:42;32.90;33.70
14873;DHT22;7528;48.576;19.122;2022-08-04T11:29:53;32.90;34.30
14873;DHT22;7528;48.576;19.122;2022-08-04T11:36:35;33.00;33.30
14873;DHT22;7528;48.576;19.122;2022-08-04T11:41:52;33.30;34.30
14873;DHT22;7528;48.576;19.122;2022-08-04T11:47:01;33.40;33.80
14873;DHT22;7528;48.576;19.122;2022-08-04T11:52:07;33.50;34.00
14873;DHT22;7528;48.576;19.122;2022-08-04T11:57:11;33.70;32.60
14873;DHT22;7528;48.576;19.122;2022-08-04T12:08:25;33.80;31.80
14873;DHT22;7528;48.576;19.122;2022-08-04T12:13:38;33.90;31.20
14873;DHT22;7528;48.576;19.122;2022-08-04T12:18:49;33.70;31.30
14873;DHT22;7528;48.576;19.122;2022-08-04T12:23:57;33.90;31.20
14873;DHT22;7528;48.576;19.122;2022-08-04T12:29:02;34.00;32.70
14873;DHT22;7528;48.576;19.122;2022-08-04T12:34:11;34.10;31.50
14873;DHT22;7528;48.576;19.122;2022-08-04T12:39:18;34.30;32.30
14873;DHT22;7528;48.576;19.122;2022-08-04T12:44:21;34.30;30.30
14873;DHT22;7528;48.576;19.122;2022-08-04T12:49:25;34.40;30.40
14873;DHT22;7528;48.576;19.122;2022-08-04T12:54:32;34.40;29.80
14873;DHT22;7528;48.576;19.122;2022-08-04T12:59:39;34.30;30.20
14873;DHT22;7528;48.576;19.122;2022-08-04T13:04:45;34.30;30.60
14873;DHT22;7528;48.576;19.122;2022-08-04T13:09:50;34.40;31.20
14873;DHT22;7528;48.576;19.122;2022-08-04T13:15:08;34.50;30.80
14873;DHT22;7528;48.576;19.122;2022-08-04T13:20:12;34.60;30.00
14873;DHT22;7528;48.576;19.122;2022-08-04T13:25:18;34.50;30.90
14873;DHT22;7528;48.576;19.122;2022-08-04T13:30:21;34.60;31.30
14873;DHT22;7528;48.576;19.122;2022-08-04T13:35:26;34.60;31.20
14873;DHT22;7528;48.576;19.122;2022-08-04T13:40:31;34.70;31.70
14873;DHT22;7528;48.576;19.122;2022-08-04T13:45:36;34.70;29.60
14873;DHT22;7528;48.576;19.122;2022-08-04T13:50:44;34.60;31.20
14873;DHT22;7528;48.576;19.122;2022-08-04T13:55:56;34.70;31.10
14873;DHT22;7528;48.576;19.122;2022-08-04T14:01:02;34.70;31.50
14873;DHT22;7528;48.576;19.122;2022-08-04T14:06:12;34.80;32.70
14873;DHT22;7528;48.576;19.122;2022-08-04T14:11:20;34.90;31.00
14873;DHT22;7528;48.576;19.122;2022-08-04T14:16:23;34.90;32.30
14873;DHT22;7528;48.576;19.122;2022-08-04T14:21:26;35.00;30.10
14873;DHT22;7528;48.576;19.122;2022-08-04T14:26:33;35.00;31.80
14873;DHT22;7528;48.576;19.122;2022-08-04T14:31:37;35.00;30.00
14873;DHT22;7528;48.576;19.122;2022-08-04T14:36:42;34.80;30.60
14873;DHT22;7528;48.576;19.122;2022-08-04T14:41:48;34.80;29.80
14873;DHT22;7528;48.576;19.122;2022-08-04T14:46:52;34.70;30.90
14873;DHT22;7528;48.576;19.122;2022-08-04T14:51:59;34.70;29.90
14873;DHT22;7528;48.576;19.122;2022-08-04T14:57:06;34.60;30.00
14873;DHT22;7528;48.576;19.122;2022-08-04T15:02:11;34.60;30.90
14873;DHT22;7528;48.576;19.122;2022-08-04T15:07:15;34.60;30.90
14873;DHT22;7528;48.576;19.122;2022-08-04T15:12:21;34.60;29.60
14873;DHT22;7528;48.576;19.122;2022-08-04T15:17:25;34.40;30.10
14873;DHT22;7528;48.576;19.122;2022-08-04T15:22:28;34.50;29.80
14873;DHT22;7528;48.576;19.122;2022-08-04T15:27:34;34.30;30.10
14873;DHT22;7528;48.576;19.122;2022-08-04T15:32:40;34.30;30.50
14873;DHT22;7528;48.576;19.122;2022-08-04T15:37:51;34.30;30.20
14873;DHT22;7528;48.576;19.122;2022-08-04T15:43:10;34.30;29.40
14873;DHT22;7528;48.576;19.122;2022-08-04T15:48:25;34.30;29.50
14873;DHT22;7528;48.576;19.122;2022-08-04T15:53:30;34.20;30.70
14873;DHT22;7528;48.576;19.122;2022-08-04T15:58:48;34.20;31.10
14873;DHT22;7528;48.576;19.122;2022-08-04T16:03:52;34.10;31.80
14873;DHT22;7528;48.576;19.122;2022-08-04T16:09:00;34.10;30.40
14873;DHT22;7528;48.576;19.122;2022-08-04T16:14:10;34.00;32.70
14873;DHT22;7528;48.576;19.122;2022-08-04T16:19:22;34.00;33.20
14873;DHT22;7528;48.576;19.122;2022-08-04T16:24:28;34.00;33.20
14873;DHT22;7528;48.576;19.122;2022-08-04T16:30:02;33.90;32.10
14873;DHT22;7528;48.576;19.122;2022-08-04T16:35:19;33.70;34.70
14873;DHT22;7528;48.576;19.122;2022-08-04T16:40:29;33.70;33.20
14873;DHT22;7528;48.576;19.122;2022-08-04T16:45:44;33.60;33.70
14873;DHT22;7528;48.576;19.122;2022-08-04T16:50:53;33.50;33.50
14873;DHT22;7528;48.576;19.122;2022-08-04T16:55:57;33.40;32.80
14873;DHT22;7528;48.576;19.122;2022-08-04T17:01:08;33.30;35.20
14873;DHT22;7528;48.576;19.122;2022-08-04T17:06:13;33.10;32.60
14873;DHT22;7528;48.576;19.122;2022-08-04T17:11:17;33.00;32.80
14873;DHT22;7528;48.576;19.122;2022-08-04T17:16:21;32.80;34.60
14873;DHT22;7528;48.576;19.122;2022-08-04T17:21:28;32.70;32.90
14873;DHT22;7528;48.576;19.122;2022-08-04T17:26:32;32.60;34.30
14873;DHT22;7528;48.576;19.122;2022-08-04T17:31:37;32.50;35.50
14873;DHT22;7528;48.576;19.122;2022-08-04T17:36:40;32.30;34.80
14873;DHT22;7528;48.576;19.122;2022-08-04T17:41:43;32.20;37.50
14873;DHT22;7528;48.576;19.122;2022-08-04T17:46:48;31.90;37.90
14873;DHT22;7528;48.576;19.122;2022-08-04T17:51:52;31.70;38.60
14873;DHT22;7528;48.576;19.122;2022-08-04T17:56:57;31.50;38.60
14873;DHT22;7528;48.576;19.122;2022-08-04T18:02:02;31.40;39.50
14873;DHT22;7528;48.576;19.122;2022-08-04T18:07:07;31.20;39.20
14873;DHT22;7528;48.576;19.122;2022-08-04T18:12:20;31.00;40.10
14873;DHT22;7528;48.576;19.122;2022-08-04T18:17:34;30.80;40.30
14873;DHT22;7528;48.576;19.122;2022-08-04T18:22:37;30.60;41.70
14873;DHT22;7528;48.576;19.122;2022-08-04T18:27:46;30.40;41.40
14873;DHT22;7528;48.576;19.122;2022-08-04T18:32:51;30.30;42.00
14873;DHT22;7528;48.576;19.122;2022-08-04T18:37:56;30.10;43.30
14873;DHT22;7528;48.576;19.122;2022-08-04T18:42:59;29.90;43.20
14873;DHT22;7528;48.576;19.122;2022-08-04T18:48:04;29.70;42.80
14873;DHT22;7528;48.576;19.122;2022-08-04T18:53:07;29.60;42.90
14873;DHT22;7528;48.576;19.122;2022-08-04T18:58:10;29.40;43.60
14873;DHT22;7528;48.576;19.122;2022-08-04T19:03:14;29.20;44.40
14873;DHT22;7528;48.576;19.122;2022-08-04T19:08:17;29.00;44.50
14873;DHT22;7528;48.576;19.122;2022-08-04T19:13:20;28.90;44.90
14873;DHT22;7528;48.576;19.122;2022-08-04T19:18:25;28.80;45.40
14873;DHT22;7528;48.576;19.122;2022-08-04T19:23:29;28.70;45.20
14873;DHT22;7528;48.576;19.122;2022-08-04T19:28:34;28.60;45.00
14873;DHT22;7528;48.576;19.122;2022-08-04T19:33:39;28.40;45.20
14873;DHT22;7528;48.576;19.122;2022-08-04T19:38:43;28.20;45.60
14873;DHT22;7528;48.576;19.122;2022-08-04T19:43:46;28.10;45.90
14873;DHT22;7528;48.576;19.122;2022-08-04T19:48:51;27.90;46.40
14873;DHT22;7528;48.576;19.122;2022-08-04T19:53:54;27.70;47.20
14873;DHT22;7528;48.576;19.122;2022-08-04T19:58:58;27.60;48.10
14873;DHT22;7528;48.576;19.122;2022-08-04T20:04:03;27.50;48.30
14873;DHT22;7528;48.576;19.122;2022-08-04T20:09:06;27.40;48.70
14873;DHT22;7528;48.576;19.122;2022-08-04T20:14:09;27.20;49.40
14873;DHT22;7528;48.576;19.122;2022-08-04T20:19:13;27.10;50.00
14873;DHT22;7528;48.576;19.122;2022-08-04T20:24:16;26.90;49.60
14873;DHT22;7528;48.576;19.122;2022-08-04T20:29:19;26.90;49.40
14873;DHT22;7528;48.576;19.122;2022-08-04T20:34:24;26.80;50.50
14873;DHT22;7528;48.576;19.122;2022-08-04T20:39:27;26.70;51.20
14873;DHT22;7528;48.576;19.122;2022-08-04T20:44:30;26.60;51.70
14873;DHT22;7528;48.576;19.122;2022-08-04T20:49:34;26.40;51.60
14873;DHT22;7528;48.576;19.122;2022-08-04T20:54:38;26.30;51.80
14873;DHT22;7528;48.576;19.122;2022-08-04T20:59:41;26.20;52.40
14873;DHT22;7528;48.576;19.122;2022-08-04T21:04:45;26.10;53.00
14873;DHT22;7528;48.576;19.122;2022-08-04T21:09:48;26.00;51.80
14873;DHT22;7528;48.576;19.122;2022-08-04T21:14:51;25.90;51.90
14873;DHT22;7528;48.576;19.122;2022-08-04T21:19:56;25.80;53.30
14873;DHT22;7528;48.576;19.122;2022-08-04T21:24:59;25.80;53.10
14873;DHT22;7528;48.576;19.122;2022-08-04T21:30:03;25.60;53.60
14873;DHT22;7528;48.576;19.122;2022-08-04T21:35:08;25.50;53.70
14873;DHT22;7528;48.576;19.122;2022-08-04T21:40:11;25.30;53.90
14873;DHT22;7528;48.576;19.122;2022-08-04T21:45:14;25.20;54.50
14873;DHT22;7528;48.576;19.122;2022-08-04T21:50:19;25.10;54.80
14873;DHT22;7528;48.576;19.122;2022-08-04T21:55:22;25.00;55.20
14873;DHT22;7528;48.576;19.122;2022-08-04T22:00:25;24.90;55.60
14873;DHT22;7528;48.576;19.122;2022-08-04T22:05:30;24.80;55.70
14873;DHT22;7528;48.576;19.122;2022-08-04T22:10:34;24.70;56.20
14873;DHT22;7528;48.576;19.122;2022-08-04T22:15:37;24.60;56.70
14873;DHT22;7528;48.576;19.122;2022-08-04T22:20:41;24.50;56.40
14873;DHT22;7528;48.576;19.122;2022-08-04T22:25:44;24.50;56.90
14873;DHT22;7528;48.576;19.122;2022-08-04T22:30:47;24.40;56.60
14873;DHT22;7528;48.576;19.122;2022-08-04T22:35:52;24.30;56.20
14873;DHT22;7528;48.576;19.122;2022-08-04T22:40:56;24.20;56.30
14873;DHT22;7528;48.576;19.122;2022-08-04T22:46:00;24.10;56.70
14873;DHT22;7528;48.576;19.122;2022-08-04T22:51:06;24.00;57.10
14873;DHT22;7528;48.576;19.122;2022-08-04T22:56:09;23.90;56.90
14873;DHT22;7528;48.576;19.122;2022-08-04T23:01:13;24.00;57.30
14873;DHT22;7528;48.576;19.122;2022-08-04T23:06:17;23.80;58.00
14873;DHT22;7528;48.576;19.122;2022-08-04T23:11:20;23.80;57.80
14873;DHT22;7528;48.576;19.122;2022-08-04T23:16:23;23.70;58.00
14873;DHT22;7528;48.576;19.122;2022-08-04T23:21:28;23.70;58.30
14873;DHT22;7528;48.576;19.122;2022-08-04T23:26:31;23.60;58.30
14873;DHT22;7528;48.576;19.122;2022-08-04T23:31:34;23.50;58.90
14873;DHT22;7528;48.576;19.122;2022-08-04T23:36:39;23.30;59.20
14873;DHT22;7528;48.576;19.122;2022-08-04T23:41:42;23.20;59.10
14873;DHT22;7528;48.576;19.122;2022-08-04T23:46:45;23.20;59.10
14873;DHT22;7528;48.576;19.122;2022-08-04T23:51:50;23.20;59.30
14873;DHT22;7528;48.576;19.122;2022-08-04T23:56:53;23.10;59.50
